Latest Weather Observations for Victoria River Downs

IDD60801

Issued at 11:11 am CST Thursday 21 November 2019 (issued every 10 minutes, with the page automatically refreshed every 10 minutes)

About weather observations | Map of weather stations | Latest weather observations for NT | Other Formats
Station Details ID: 014825 Name: VICTORIA RIVER DOWNS Lat: -16.40 Lon: 131.01 Height: 88.5 m
Data from the previous 72 hours. | See also: Recent months at Victoria River Downs
Date/Time
CST
Temp
°C
App
Temp
°C
Dew
Point
°C
Rel
Hum
%
Delta-T
°C
Wind Press
QNH
hPa
Press
MSL
hPa
Rain since
9am
mm
Dir  Spd
km/h
Gust
km/h
Spd
kts
Gust
kts
21/11:00am 37.1 35.1 13.8 25 14.4 NNW 17 28 9 15 1009.0 1008.3 0.0
21/10:30am 36.0 33.7 14.6 27 13.3 NNW 20 30 11 16 1009.4 1008.7 0.0
21/10:00am 35.4 33.3 14.6 28 12.9 NNW 19 28 10 15 1009.7 1009.0 0.0
21/09:30am 34.2 32.5 14.7 31 12.1 NNW 17 26 9 14 1010.1 1009.4 0.0
21/09:00am 33.4 31.8 14.9 32 11.5 NNW 17 26 9 14 1010.2 1009.6 0.0
21/08:30am 32.6 31.6 15.6 36 10.6 N 15 20 8 11 1010.3 1009.6 0.0
21/08:00am 31.9 31.3 16.6 39 9.7 N 15 20 8 11 1010.3 1009.6 0.0
21/07:30am 31.2 30.7 16.8 42 9.1 N 15 24 8 13 1010.1 1009.4 0.0
21/07:00am 30.8 29.5 16.8 43 8.8 N 19 32 10 17 1009.5 1008.8 0.0
21/06:30am 30.4 29.9 16.0 41 9.0 NNE 13 17 7 9 1009.1 1008.4 0.0
21/06:00am 30.3 29.3 15.6 41 9.1 N 15 22 8 12 1008.3 1007.7 0.0
21/05:30am 31.0 28.4 13.7 34 10.4 N 20 33 11 18 1007.7 1007.0 0.0
21/05:00am 31.2 28.4 12.5 31 11.1 WNW 19 24 10 13 1006.7 1006.0 0.0
21/04:30am 31.7 30.0 12.5 31 11.4 WNW 13 17 7 9 1006.9 1006.2 0.0
21/04:00am 32.2 29.9 12.9 31 11.6 NW 17 24 9 13 1006.8 1006.1 0.0
21/03:30am 32.0 29.3 11.7 28 11.9 NW 17 22 9 12 1006.5 1005.8 0.0
21/03:00am 31.6 29.6 10.3 27 12.3 WNW 11 15 6 8 1006.5 1005.9 0.0
21/02:30am 31.4 29.3 9.6 26 12.4 NNW 11 13 6 7 1006.8 1006.1 0.0
21/02:00am 31.6 30.4 10.3 27 12.2 SSW 7 11 4 6 1007.2 1006.5 0.0
21/01:30am 31.5 30.8 10.2 27 12.2 SE 4 7 2 4 1007.0 1006.3 0.0
21/01:00am 32.8 31.0 9.6 24 13.2 NW 9 13 5 7 1006.8 1006.1 0.0
21/12:30am 33.5 31.2 8.9 22 13.9 N 11 15 6 8 1007.0 1006.3 0.0
21/12:00am 34.8 32.4 8.5 20 14.9 NNW 11 19 6 10 1007.1 1006.5 0.0
 
Date/Time
CST
Temp
°C
App
Temp
°C
Dew
Point
°C
Rel
Hum
%
Delta-T
°C
Wind Press
QNH
hPa
Press
MSL
hPa
Rain since
9am
mm
Dir  Spd
km/h
Gust
km/h
Spd
kts
Gust
kts
20/11:30pm 34.3 33.1 9.5 22 14.2 WNW 6 11 3 6 1007.3 1006.6 0.0
20/11:00pm 35.8 33.4 10.1 21 15.0 NW 13 19 7 10 1007.1 1006.4 0.0
20/10:30pm 36.2 33.7 9.7 20 15.4 NNW 13 19 7 10 1006.9 1006.2 0.0
20/10:00pm 34.3 32.0 7.4 19 14.9 NNW 9 17 5 9 1006.7 1006.0 0.0
20/09:30pm 33.6 32.4 10.2 24 13.5 W 7 9 4 5 1006.1 1005.4 0.0
20/09:00pm 34.2 32.6 8.0 20 14.7 N 6 7 3 4 1005.9 1005.3 0.0
20/08:30pm 34.8 35.0 10.6 23 14.2 CALM 0 0 0 0 1005.5 1004.8 0.0
20/08:00pm 36.2 34.4 7.3 17 16.2 N 6 7 3 4 1005.3 1004.6 0.0
20/07:30pm 37.6 35.5 6.6 15 17.3 N 7 9 4 5 1005.0 1004.3 0.0
20/07:00pm 38.6 36.4 6.3 14 18.0 N 7 11 4 6 1004.7 1004.0 0.0
20/06:30pm 39.4 37.0 7.0 14 18.3 N 9 11 5 6 1004.6 1003.9 0.0
20/06:00pm 39.9 37.2 7.4 14 18.6 N 11 19 6 10 1004.3 1003.6 0.0
20/05:30pm 40.2 36.5 6.5 13 19.0 N 15 20 8 11 1004.1 1003.4 0.0
20/05:00pm 41.8 38.9 6.6 12 20.0 NW 11 19 6 10 1003.8 1003.1 0.0
20/04:30pm 41.1 38.0 7.2 13 19.4 N 13 28 7 15 1003.9 1003.2 0.0
20/04:00pm 41.0 38.2 7.1 13 19.3 N 11 22 6 12 1004.0 1003.3 0.0
20/03:30pm 41.0 38.9 8.2 14 19.0 NW 9 19 5 10 1004.4 1003.7 0.0
20/03:00pm 41.4 39.4 8.5 14 19.2 WSW 9 19 5 10 1004.7 1004.0 0.0
20/02:30pm 40.3 38.3 8.7 15 18.4 SSW 9 17 5 9 1004.9 1004.2 0.0
20/02:00pm 40.2 37.8 8.6 15 18.4 NNE 11 22 6 12 1005.3 1004.6 0.0
20/01:30pm 40.3 37.5 8.7 15 18.4 WNW 13 22 7 12 1006.0 1005.3 0.0
20/01:00pm 40.0 36.3 9.4 16 18.0 NW 19 30 10 16 1006.8 1006.1 0.0
20/12:30pm 39.8 37.7 11.0 18 17.3 WSW 13 28 7 15 1007.4 1006.7 0.0
20/12:00pm 39.8 37.5 11.8 19 17.0 W 15 32 8 17 1008.1 1007.5 0.0
20/11:30am 38.3 35.8 13.5 23 15.3 WNW 19 32 10 17 1008.5 1007.8 0.0
20/11:00am 37.6 35.5 13.6 24 14.8 W 17 28 9 15 1009.0 1008.3 0.0
20/10:30am 37.0 35.7 14.9 27 13.9 WNW 15 26 8 14 1009.2 1008.5 0.0
20/10:00am 35.4 33.9 15.2 30 12.7 NW 17 26 9 14 1009.5 1008.8 0.0
20/09:30am 33.9 32.6 15.8 33 11.4 NNW 17 24 9 13 1009.8 1009.1 0.0
20/09:00am 33.4 32.1 16.7 36 10.6 NW 19 30 10 16 1009.8 1009.3 0.0
20/08:30am 32.1 31.8 18.3 44 8.9 NNW 17 22 9 12 1009.8 1009.1 0.0
20/08:00am 31.3 31.1 18.6 46 8.2 NNW 17 24 9 13 1009.8 1009.1 0.0
20/07:30am 30.6 29.8 19.3 51 7.4 NNW 22 30 12 16 1009.6 1008.9 0.0
20/07:00am 29.8 30.9 18.9 52 7.1 NNW 11 26 6 14 1009.4 1008.7 0.0
20/06:30am 29.1 30.7 19.1 54 6.5 NNE 9 13 5 7 1009.0 1008.3 0.0
20/06:00am 29.3 30.8 19.0 53 6.7 N 9 15 5 8 1008.8 1008.1 0.0
20/05:30am 29.6 30.2 16.8 46 8.1 N 9 13 5 7 1008.3 1007.6 0.0
20/05:00am 30.0 29.0 15.7 42 8.9 N 15 22 8 12 1008.0 1007.3 0.0
20/04:30am 30.5 28.9 12.9 34 10.5 N 13 17 7 9 1007.7 1007.0 0.0
20/04:00am 30.2 28.8 12.1 32 10.6 NNE 11 17 6 9 1007.2 1006.5 0.0
20/03:30am 27.7 28.6 12.9 40 8.7 CALM 0 2 0 1 1006.3 1005.6 0.0
20/03:00am 28.7 27.8 12.6 37 9.5 E 9 13 5 7 1006.2 1005.6 0.0
20/02:30am 29.3 28.6 11.4 33 10.4 WSW 6 7 3 4 1005.9 1005.2 0.0
20/02:00am 30.4 29.3 11.9 32 10.8 WNW 9 9 5 5 1006.0 1005.3 0.0
20/01:30am 30.2 29.5 12.1 32 10.6 WNW 7 9 4 5 1006.3 1005.6 0.0
20/01:00am 32.0 31.0 12.3 30 11.7 NW 9 13 5 7 1006.6 1005.9 0.0
20/12:30am 32.8 31.1 12.4 29 12.2 NW 13 15 7 8 1006.7 1006.0 0.0
20/12:00am 32.3 31.1 11.5 28 12.2 NW 9 11 5 6 1006.9 1006.3 0.0
 
Date/Time
CST
Temp
°C
App
Temp
°C
Dew
Point
°C
Rel
Hum
%
Delta-T
°C
Wind Press
QNH
hPa
Press
MSL
hPa
Rain since
9am
mm
Dir  Spd
km/h
Gust
km/h
Spd
kts
Gust
kts
19/11:30pm 33.1 31.7 11.0 26 12.9 NW 9 13 5 7 1007.1 1006.4 0.0
19/11:00pm 33.6 31.8 10.9 25 13.3 NW 11 13 6 7 1007.2 1006.5 0.0
19/10:30pm 34.2 31.1 8.8 21 14.4 NW 15 17 8 9 1007.3 1006.6 0.0
19/10:00pm 30.5 30.3 11.9 31 10.9 W 4 7 2 4 1007.1 1006.4 0.0
19/09:30pm 31.5 30.7 9.7 26 12.4 N 4 7 2 4 1006.8 1006.1 0.0
19/09:00pm 32.3 29.4 1.4 14 15.4 NNE 6 7 3 4 1006.6 1006.0 0.0
19/08:30pm 33.5 32.7 6.7 19 14.7 CALM 0 0 0 0 1006.5 1005.8 0.0
19/08:00pm 34.8 33.9 6.2 17 15.6 CALM 0 0 0 0 1006.4 1005.7 0.0
19/07:30pm 36.3 34.9 3.5 13 17.3 CALM 0 0 0 0 1006.1 1005.4 0.0
19/07:00pm 37.7 35.5 3.4 12 18.2 ESE 4 7 2 4 1005.7 1005.0 0.0
19/06:30pm 39.4 36.9 4.7 12 19.0 ESE 7 9 4 5 1005.3 1004.6 0.0
19/06:00pm 40.8 38.0 3.2 10 20.3 ESE 7 11 4 6 1005.1 1004.4 0.0
19/05:30pm 41.1 38.5 3.4 10 20.4 NE 6 17 3 9 1004.8 1004.1 0.0
19/05:00pm 41.3 37.9 2.1 9 20.8 NNE 9 20 5 11 1004.8 1004.1 0.0
19/04:30pm 41.3 37.1 3.6 10 20.5 N 15 20 8 11 1004.9 1004.2 0.0
19/04:00pm 41.5 39.0 3.7 10 20.6 ENE 6 11 3 6 1005.1 1004.4 0.0
19/03:30pm 39.8 36.4 3.8 11 19.5 NE 11 19 6 10 1005.5 1004.8 0.0
19/03:00pm 41.8 38.4 4.0 10 20.8 NW 11 15 6 8 1005.6 1004.9 0.0
19/02:30pm 41.2 37.2 4.9 11 20.1 NNW 15 24 8 13 1006.0 1005.3 0.0
19/02:00pm 41.5 37.5 5.1 11 20.2 SSE 15 30 8 16 1006.5 1005.8 0.0
19/01:30pm 40.4 36.8 6.7 13 19.1 N 15 19 8 10 1007.0 1006.3 0.0
19/01:00pm 39.8 37.1 10.2 17 17.6 NNW 15 28 8 15 1007.6 1006.9 0.0
19/12:30pm 39.5 36.2 8.1 15 18.1 NNW 15 28 8 15 1008.3 1007.6 0.0
19/12:00pm 38.2 35.6 12.0 21 15.9 NNE 17 30 9 16 1008.8 1008.3 0.0
19/11:30am 37.4 35.2 13.4 24 14.8 NW 17 30 9 16 1009.3 1008.6 0.0
19/11:00am 36.8 35.3 15.3 28 13.6 N 17 26 9 14 1009.9 1009.2 0.0
19/10:30am 36.6 35.8 16.2 29 13.0 NW 15 26 8 14 1010.2 1009.5 0.0
19/10:00am 35.2 34.4 17.0 34 11.7 NW 17 24 9 13 1010.5 1009.8 0.0
19/09:30am 34.1 34.1 18.2 39 10.4 NNW 15 22 8 12 1010.7 1010.0 0.0
19/09:00am 32.4 33.1 19.6 46 8.5 NNW 15 24 8 13 1010.8 1010.2 0.0
19/08:30am 31.9 32.9 19.5 47 8.2 NNW 13 20 7 11 1010.7 1010.0 0.0
19/08:00am 30.9 32.0 19.6 51 7.4 NW 13 19 7 10 1010.5 1009.8 0.0
19/07:30am 30.2 30.2 18.9 50 7.3 NNW 17 26 9 14 1010.1 1009.4 0.0
19/07:00am 29.2 29.4 17.7 50 7.3 NW 13 17 7 9 1009.7 1009.0 0.0
19/06:30am 28.8 28.8 17.3 49 7.3 NNW 13 19 7 10 1009.3 1008.6 0.0
19/06:00am 26.0 24.0 8.5 33 9.5 NE 9 13 5 7 1009.0 1008.4 0.0
19/05:30am 25.7 25.4 13.2 46 7.3 N 7 11 4 6 1008.5 1007.8 0.0
19/05:00am 27.2 27.2 13.5 42 8.1 NW 6 9 3 5 1008.0 1007.3 0.0
19/04:30am 26.1 26.3 11.8 41 8.2 N 2 7 1 4 1007.8 1007.1 0.0
19/04:00am 26.1 25.5 7.2 30 10.0 CALM 0 0 0 0 1007.5 1006.8 0.0
19/03:30am 26.7 26.2 9.5 34 9.5 N 2 7 1 4 1007.3 1006.6 0.0
19/03:00am 27.6 27.7 10.3 34 9.8 CALM 0 0 0 0 1007.2 1006.6 0.0
19/02:30am 29.0 28.7 10.2 31 10.6 ESE 2 7 1 4 1007.3 1006.6 0.0
19/02:00am 29.9 28.7 6.5 23 12.5 N 2 7 1 4 1007.6 1006.9 0.0
19/01:30am 30.6 30.2 8.3 25 12.3 CALM 0 0 0 0 1007.8 1007.1 0.0
19/01:00am 31.0 28.3 3.9 18 14.0 NW 7 11 4 6 1008.0 1007.3 0.0
19/12:30am 30.9 30.1 9.7 27 12.0 SSE 4 9 2 5 1008.0 1007.3 0.0
19/12:00am 31.0 30.0 5.4 20 13.6 CALM 0 0 0 0 1008.1 1007.5 0.0
 
Date/Time
CST
Temp
°C
App
Temp
°C
Dew
Point
°C
Rel
Hum
%
Delta-T
°C
Wind Press
QNH
hPa
Press
MSL
hPa
Rain since
9am
mm
Dir  Spd
km/h
Gust
km/h
Spd
kts
Gust
kts
18/11:30pm 31.5 29.4 5.8 20 13.7 SSE 6 7 3 4 1008.4 1007.7 0.0
18/11:00pm 31.9 29.7 5.4 19 14.1 SSE 6 7 3 4 1008.5 1007.8 0.0
18/10:30pm 32.3 31.2 5.0 18 14.4 CALM 0 0 0 0 1008.5 1007.8 0.0
18/10:00pm 31.4 30.7 10.2 27 12.1 S 4 9 2 5 1008.5 1007.8 0.0
18/09:30pm 31.8 31.7 9.3 25 12.7 CALM 0 0 0 0 1008.2 1007.5 0.0
18/09:00pm 33.1 32.4 7.1 20 14.3 CALM 0 0 0 0 1008.0 1007.4 0.0
18/08:30pm 34.3 31.8 4.0 15 16.0 NNE 6 6 3 3 1008.1 1007.4 0.0
18/08:00pm 34.9 34.2 7.1 18 15.4 CALM 0 0 0 0 1007.9 1007.2 0.0
18/07:30pm 36.2 34.8 5.5 15 16.7 NNE 2 6 1 3 1007.6 1006.9 0.0
18/07:00pm 38.7 35.3 4.2 12 18.7 ENE 11 13 6 7 1007.2 1006.5 0.0
18/06:30pm 39.5 36.2 4.8 12 19.0 E 11 17 6 9 1006.9 1006.2 0.0
18/06:00pm 39.9 36.3 5.1 12 19.2 NNW 13 19 7 10 1006.6 1005.9 0.0
18/05:30pm 40.5 37.5 4.3 11 19.8 ENE 9 17 5 9 1006.6 1005.9 0.0
18/05:00pm 40.2 36.4 4.1 11 19.6 ENE 13 19 7 10 1006.6 1005.9 0.0
18/04:30pm 41.5 38.0 3.7 10 20.6 ESE 11 17 6 9 1006.2 1005.5 0.0
18/04:00pm 41.4 38.2 5.0 11 20.2 SSE 11 19 6 10 1006.5 1005.8 0.0
18/03:30pm 40.1 36.2 5.3 12 19.3 NE 15 24 8 13 1007.0 1006.3 0.0
18/03:00pm 40.6 36.4 5.7 12 19.5 E 17 26 9 14 1007.3 1006.8 0.0
18/02:30pm 40.1 35.6 4.0 11 19.6 N 17 26 9 14 1007.8 1007.1 0.0
18/02:08pm 40.3 35.4 4.2 11 19.7 SE 19 59 10 32 1008.1 1007.4 0.0
18/02:00pm 40.3 36.6 4.2 11 19.7 E 13 24 7 13 1008.2 1007.5 0.0
18/01:30pm 40.4 35.3 4.3 11 19.7 ENE 20 33 11 18 1008.9 1008.2 0.0
18/01:00pm 40.1 35.0 4.0 11 19.6 NNE 20 35 11 19 1009.3 1008.6 0.0
18/12:30pm 40.8 35.7 3.2 10 20.2 NE 19 30 10 16 1010.0 1009.3 0.0
18/12:00pm 38.5 35.8 9.1 17 17.1 N 13 28 7 15 1010.6 1010.0 0.0
18/11:30am 37.7 34.7 9.3 18 16.5 N 15 26 8 14 1011.3 1010.6 0.0

Other formats

Comma delimited format used in spreadsheet applications
http://www.bom.gov.au/fwo/IDD60801/IDD60801.94232.axf

JavaScript Object Notation format (JSON) in row-major order
http://www.bom.gov.au/fwo/IDD60801/IDD60801.94232.json

Data quality

Most of these data are generated automatically and are frequently updated. Quality checks on data are not normally performed. It is possible for incorrect values to appear. Refer to information at About Latest Weather Observations and please check the disclaimer before using these data.